Time;durP1;ratioP1;P1;durP2;ratioP2;P2;SDS_P1;SDS_P2;PMS_P1;PMS_P2;Temp;Humidity;BMP_temperature;BMP_pressure;BME280_temperature;BME280_humidity;BME280_pressure;Samples;Min_cycle;Max_cycle;Signal;HPM_P1;HPM_P2
2023/01/29 05:01:27;;;;;;;;;;;1.40;95.10;;;;;;5522957;23;19930;-77
2023/01/29 05:03:56;;;;;;;;;;;3.60;95.50;;;;;;4903651;29;19982;-76
2023/01/29 05:06:23;;;;;;;;;;;1.30;94.90;;;;;;4895742;29;19962;-77
2023/01/29 05:08:50;;;;;;;;;;;1.60;95.10;;;;;;4877980;29;19990;-76
2023/01/29 05:11:17;;;;;;;;;;;1.60;95.00;;;;;;4855533;29;20406;-76
2023/01/29 05:13:44;;;;;;;;;;;2.70;95.30;;;;;;4839876;29;19959;-76
2023/01/29 05:16:14;;;;;;;;;;;3.40;95.40;;;;;;4843205;29;20072;-77
2023/01/29 05:18:41;;;;;;;;;;;1.60;94.90;;;;;;4869146;29;20376;-76
2023/01/29 05:21:08;;;;;;;;;;;1.60;94.90;;;;;;4844454;29;19959;-76
2023/01/29 05:23:35;;;;;;;;;;;1.40;95.00;;;;;;4887027;29;19992;-77
2023/01/29 05:26:02;;;;;;;;;;;2.30;95.40;;;;;;4895213;29;19931;-77
2023/01/29 05:28:29;;;;;;;;;;;1.50;95.00;;;;;;4883688;29;19931;-76
2023/01/29 05:30:56;;;;;;;;;;;1.40;94.90;;;;;;4906604;29;19931;-76
2023/01/29 05:33:27;;;;;;;;;;;1.60;94.90;;;;;;4895228;29;20332;-76
2023/01/29 05:35:54;;;;;;;;;;;1.70;94.90;;;;;;4890255;29;19931;-76
2023/01/29 05:38:21;;;;;;;;;;;1.40;95.00;;;;;;4895130;29;20355;-75
2023/01/29 05:40:48;;;;;;;;;;;2.60;95.30;;;;;;4878790;29;19979;-79
2023/01/29 05:43:19;;;;;;;;;;;2.70;95.30;;;;;;4895330;29;19927;-78
2023/01/29 05:45:52;;;;;;;;;;;3.70;95.60;;;;;;4914964;29;20050;-78
2023/01/29 05:48:19;;;;;;;;;;;1.50;94.90;;;;;;4908915;29;19931;-78
2023/01/29 05:50:45;;;;;;;;;;;1.50;95.10;;;;;;4897840;29;19927;-77
2023/01/29 05:53:12;;;;;;;;;;;1.50;95.10;;;;;;4904802;29;19930;-78
2023/01/29 05:55:39;;;;;;;;;;;1.30;95.00;;;;;;4909911;29;19973;-78
2023/01/29 05:58:05;;;;;;;;;;;1.60;95.20;;;;;;4914299;29;19950;-77
2023/01/29 06:00:33;;;;;;;;;;;1.50;95.30;;;;;;4891780;29;19930;-78
2023/01/29 06:03:00;;;;;;;;;;;3.60;95.80;;;;;;4896345;29;19931;-79
2023/01/29 06:05:27;;;;;;;;;;;1.50;95.40;;;;;;4914870;29;19961;-79
2023/01/29 06:07:54;;;;;;;;;;;3.50;95.80;;;;;;4912580;29;20029;-78
2023/01/29 06:10:21;;;;;;;;;;;1.40;95.30;;;;;;4883045;29;20079;-78
2023/01/29 06:12:48;;;;;;;;;;;1.40;95.20;;;;;;4899616;29;19934;-77
2023/01/29 06:15:14;;;;;;;;;;;1.40;95.30;;;;;;4899165;29;19927;-77
2023/01/29 06:17:44;;;;;;;;;;;1.30;95.20;;;;;;4892785;29;20304;-78
2023/01/29 06:20:14;;;;;;;;;;;1.30;95.10;;;;;;4927280;29;19938;-77
2023/01/29 06:22:41;;;;;;;;;;;1.50;95.30;;;;;;4914833;29;19938;-77
2023/01/29 06:25:09;;;;;;;;;;;1.90;95.40;;;;;;4912354;29;19935;-77
2023/01/29 06:27:36;;;;;;;;;;;2.80;95.80;;;;;;4929032;29;20458;-77
2023/01/29 06:30:03;;;;;;;;;;;2.00;95.60;;;;;;4931793;29;19937;-78
2023/01/29 06:32:31;;;;;;;;;;;1.60;95.40;;;;;;4914688;29;20475;-78
2023/01/29 06:34:58;;;;;;;;;;;1.30;95.40;;;;;;4882254;29;20377;-78
2023/01/29 06:37:24;;;;;;;;;;;3.00;95.90;;;;;;4857211;29;19928;-78
2023/01/29 06:39:51;;;;;;;;;;;1.30;95.50;;;;;;4799019;29;19989;-78
2023/01/29 06:42:19;;;;;;;;;;;1.50;95.90;;;;;;4801764;29;20569;-78
2023/01/29 06:44:46;;;;;;;;;;;3.60;96.40;;;;;;4832942;29;20651;-77
2023/01/29 06:47:14;;;;;;;;;;;1.20;95.60;;;;;;4847497;29;19933;-77
2023/01/29 06:49:41;;;;;;;;;;;1.40;95.60;;;;;;4813180;29;20770;-77
2023/01/29 06:52:07;;;;;;;;;;;1.40;95.40;;;;;;4815943;29;19953;-78
2023/01/29 06:54:34;;;;;;;;;;;1.30;95.60;;;;;;4820396;29;19940;-78
2023/01/29 06:57:01;;;;;;;;;;;1.40;95.40;;;;;;4874137;29;19943;-78
2023/01/29 06:59:28;;;;;;;;;;;1.40;95.30;;;;;;4872499;29;19928;-78
2023/01/29 07:01:57;;;;;;;;;;;1.40;95.20;;;;;;4886387;29;19984;-78
2023/01/29 07:04:24;;;;;;;;;;;2.40;95.90;;;;;;4893477;29;20340;-77
2023/01/29 07:06:51;;;;;;;;;;;1.50;95.50;;;;;;4873235;29;19936;-76
2023/01/29 07:09:17;;;;;;;;;;;3.20;95.90;;;;;;4888422;29;19954;-76
2023/01/29 07:11:44;;;;;;;;;;;1.20;95.40;;;;;;4887561;29;19939;-76
2023/01/29 07:14:11;;;;;;;;;;;1.40;95.40;;;;;;4874070;29;20054;-78
2023/01/29 07:16:38;;;;;;;;;;;1.30;95.30;;;;;;4885448;29;19988;-78
2023/01/29 07:19:06;;;;;;;;;;;2.20;95.80;;;;;;4898138;29;19947;-77
2023/01/29 07:21:35;;;;;;;;;;;3.00;95.90;;;;;;4872773;29;19927;-77
2023/01/29 07:24:02;;;;;;;;;;;-0.40;95.00;;;;;;4889606;29;20281;-77
2023/01/29 07:26:32;;;;;;;;;;;1.50;95.90;;;;;;4873152;29;19963;-77
2023/01/29 07:28:58;;;;;;;;;;;-0.70;95.00;;;;;;4889263;29;20007;-79
2023/01/29 07:31:25;;;;;;;;;;;1.40;95.10;;;;;;4873379;29;19928;-79
2023/01/29 07:33:52;;;;;;;;;;;1.20;95.20;;;;;;4855742;29;20539;-77
2023/01/29 07:36:19;;;;;;;;;;;3.90;96.00;;;;;;4875678;29;20438;-78
2023/01/29 07:38:49;;;;;;;;;;;1.40;95.40;;;;;;4872200;29;19986;-77
2023/01/29 07:41:16;;;;;;;;;;;1.60;95.20;;;;;;4875849;29;19931;-78
2023/01/29 07:43:49;;;;;;;;;;;1.20;95.10;;;;;;4854637;29;19932;-77
2023/01/29 07:46:15;;;;;;;;;;;1.50;95.20;;;;;;4874028;29;19928;-73
2023/01/29 07:48:42;;;;;;;;;;;1.40;95.20;;;;;;4875003;29;19931;-74
2023/01/29 07:51:09;;;;;;;;;;;1.50;95.00;;;;;;4850112;29;19932;-73
2023/01/29 07:53:36;;;;;;;;;;;1.50;95.10;;;;;;4870559;29;19928;-74
2023/01/29 07:56:03;;;;;;;;;;;1.40;95.10;;;;;;4874327;29;20521;-73
2023/01/29 07:58:29;;;;;;;;;;;1.50;95.10;;;;;;4854066;29;19932;-73
2023/01/29 08:00:56;;;;;;;;;;;1.40;95.10;;;;;;4888299;29;19931;-73
2023/01/29 08:03:23;;;;;;;;;;;1.60;95.00;;;;;;4873792;29;19931;-74
2023/01/29 08:05:49;;;;;;;;;;;2.50;95.40;;;;;;4857399;29;19983;-76
2023/01/29 08:08:18;;;;;;;;;;;1.20;95.10;;;;;;4874061;29;20345;-76
2023/01/29 08:10:44;;;;;;;;;;;4.20;95.60;;;;;;4887338;29;19970;-76
2023/01/29 08:13:11;;;;;;;;;;;2.00;95.30;;;;;;4887452;29;19940;-76
2023/01/29 08:15:38;;;;;;;;;;;1.50;95.20;;;;;;4874836;29;19932;-76
2023/01/29 08:18:05;;;;;;;;;;;1.30;95.20;;;;;;4887469;29;19927;-76
2023/01/29 08:20:32;;;;;;;;;;;3.00;95.60;;;;;;4874975;29;19935;-76
2023/01/29 08:23:02;;;;;;;;;;;1.40;95.20;;;;;;4881274;29;19936;-77
2023/01/29 08:25:29;;;;;;;;;;;1.50;95.30;;;;;;4883070;29;20050;-77
2023/01/29 08:27:59;;;;;;;;;;;3.20;96.10;;;;;;4884678;29;19939;-77
2023/01/29 08:30:27;;;;;;;;;;;3.90;96.30;;;;;;4885988;29;19928;-77
2023/01/29 08:32:53;;;;;;;;;;;1.50;95.70;;;;;;4896197;29;19932;-76
2023/01/29 08:35:20;;;;;;;;;;;3.70;96.30;;;;;;4892941;29;19932;-75
2023/01/29 08:37:54;;;;;;;;;;;2.10;95.80;;;;;;4876879;29;19932;-76
2023/01/29 08:40:21;;;;;;;;;;;1.50;95.50;;;;;;4891831;29;20015;-76
2023/01/29 08:42:47;;;;;;;;;;;1.20;95.50;;;;;;4891849;29;19932;-77
2023/01/29 08:45:14;;;;;;;;;;;1.50;95.60;;;;;;4867226;29;19966;-78
2023/01/29 08:47:45;;;;;;;;;;;1.60;95.50;;;;;;4892700;29;20316;-77
2023/01/29 08:50:15;;;;;;;;;;;1.50;95.20;;;;;;4877155;29;19974;-77
2023/01/29 08:52:43;;;;;;;;;;;3.00;95.60;;;;;;4877546;29;19936;-78
2023/01/29 08:55:15;;;;;;;;;;;1.50;95.10;;;;;;4875881;29;20014;-79
2023/01/29 08:57:45;;;;;;;;;;;1.60;95.10;;;;;;4885365;29;19995;-75
2023/01/29 09:00:12;;;;;;;;;;;1.70;95.10;;;;;;4865372;29;19931;-77
2023/01/29 09:02:39;;;;;;;;;;;2.30;95.00;;;;;;4883019;29;19982;-75
2023/01/29 09:05:06;;;;;;;;;;;1.60;94.50;;;;;;4887784;29;20430;-76
2023/01/29 09:07:33;;;;;;;;;;;1.70;94.60;;;;;;4876496;29;20608;-76
2023/01/29 09:10:00;;;;;;;;;;;1.70;94.60;;;;;;4883040;29;20535;-76
2023/01/29 09:12:26;;;;;;;;;;;3.40;94.90;;;;;;4876462;29;20030;-80
2023/01/29 09:14:53;;;;;;;;;;;2.90;95.00;;;;;;4876300;29;19975;-78
2023/01/29 09:17:20;;;;;;;;;;;1.70;94.30;;;;;;4873653;29;19928;-77
2023/01/29 09:19:47;;;;;;;;;;;1.80;94.30;;;;;;4875199;29;19936;-76
2023/01/29 09:22:14;;;;;;;;;;;1.70;94.30;;;;;;4890416;29;19932;-75
2023/01/29 09:24:40;;;;;;;;;;;1.80;94.20;;;;;;4873938;29;19975;-76
2023/01/29 09:27:08;;;;;;;;;;;2.10;94.30;;;;;;4874068;29;20356;-75
2023/01/29 09:29:35;;;;;;;;;;;1.90;94.30;;;;;;4889756;29;19935;-75
2023/01/29 09:32:03;;;;;;;;;;;0.90;93.50;;;;;;4887779;29;20395;-73
2023/01/29 09:34:31;;;;;;;;;;;3.00;93.90;;;;;;4890048;29;20492;-73
2023/01/29 09:36:58;;;;;;;;;;;2.90;93.80;;;;;;4875958;29;19932;-73
2023/01/29 09:39:25;;;;;;;;;;;3.80;93.20;;;;;;4876014;29;19947;-73
2023/01/29 09:41:54;;;;;;;;;;;2.20;93.20;;;;;;4889895;29;19940;-73
2023/01/29 09:44:32;;;;;;;;;;;2.40;93.30;;;;;;4858304;29;19932;-73
2023/01/29 09:47:00;;;;;;;;;;;2.40;92.90;;;;;;4889783;29;19932;-75
2023/01/29 09:49:36;;;;;;;;;;;3.30;92.90;;;;;;4868674;29;19932;-75
2023/01/29 09:52:08;;;;;;;;;;;2.50;92.90;;;;;;4884429;29;19932;-75
2023/01/29 09:54:35;;;;;;;;;;;2.50;92.90;;;;;;4889871;29;20391;-75
2023/01/29 09:57:02;;;;;;;;;;;2.70;92.60;;;;;;4875667;29;19928;-75
2023/01/29 09:59:29;;;;;;;;;;;2.70;92.20;;;;;;4888846;29;20651;-75
2023/01/29 10:01:59;;;;;;;;;;;2.90;92.00;;;;;;4890487;29;19942;-75
2023/01/29 10:04:26;;;;;;;;;;;2.60;92.10;;;;;;4873665;29;20018;-76
2023/01/29 10:06:59;;;;;;;;;;;2.80;92.10;;;;;;4877341;29;19982;-75
2023/01/29 10:09:25;;;;;;;;;;;2.90;92.20;;;;;;4880634;29;19928;-76
2023/01/29 10:12:11;;;;;;;;;;;4.40;92.60;;;;;;4889954;29;19935;-76
2023/01/29 10:14:46;;;;;;;;;;;3.00;92.40;;;;;;4886973;29;19932;-75
2023/01/29 10:17:22;;;;;;;;;;;3.20;91.70;;;;;;4874464;29;20598;-75
2023/01/29 10:19:52;;;;;;;;;;;3.20;91.60;;;;;;4850099;29;20442;-76
2023/01/29 10:22:27;;;;;;;;;;;3.30;91.90;;;;;;4832702;29;19940;-74
2023/01/29 10:24:59;;;;;;;;;;;3.50;91.80;;;;;;4847908;29;20027;-74
2023/01/29 10:27:29;;;;;;;;;;;3.30;91.00;;;;;;4803511;29;19933;-75
2023/01/29 10:29:56;;;;;;;;;;;3.40;91.40;;;;;;4848969;29;19939;-76
2023/01/29 10:32:24;;;;;;;;;;;3.30;91.80;;;;;;4819710;29;19933;-76
2023/01/29 10:34:59;;;;;;;;;;;4.90;92.00;;;;;;4841900;29;20015;-76
2023/01/29 10:37:46;;;;;;;;;;;3.40;91.30;;;;;;4826235;29;19951;-74
2023/01/29 10:40:16;;;;;;;;;;;3.50;91.40;;;;;;4873542;29;19943;-74
2023/01/29 10:42:45;;;;;;;;;;;3.70;91.00;;;;;;4876755;29;19931;-75
2023/01/29 10:45:15;;;;;;;;;;;4.30;91.30;;;;;;4888858;29;19939;-75
2023/01/29 10:48:12;;;;;;;;;;;3.70;91.30;;;;;;4872227;29;19956;-75
2023/01/29 10:50:53;;;;;;;;;;;3.60;91.50;;;;;;4846575;29;20011;-75
2023/01/29 10:53:23;;;;;;;;;;;3.50;90.90;;;;;;4881408;29;19931;-75
2023/01/29 10:55:53;;;;;;;;;;;3.60;90.70;;;;;;4884889;29;19954;-75
2023/01/29 10:58:25;;;;;;;;;;;3.60;90.70;;;;;;4886808;29;20019;-76
2023/01/29 11:00:52;;;;;;;;;;;3.70;91.20;;;;;;4887509;29;19936;-75
2023/01/29 11:03:23;;;;;;;;;;;3.70;90.90;;;;;;4875132;29;20338;-75
2023/01/29 11:06:13;;;;;;;;;;;3.80;90.90;;;;;;4871098;29;19931;-75
2023/01/29 11:08:58;;;;;;;;;;;3.90;90.50;;;;;;4873611;29;19991;-75
2023/01/29 11:11:49;;;;;;;;;;;3.70;90.40;;;;;;4887762;29;20281;-75
2023/01/29 11:14:34;;;;;;;;;;;3.70;90.90;;;;;;4832095;29;19932;-75
2023/01/29 11:17:01;;;;;;;;;;;3.70;90.80;;;;;;4873325;29;20849;-75
2023/01/29 11:19:38;;;;;;;;;;;3.90;91.20;;;;;;4875813;29;20411;-73
2023/01/29 11:22:10;;;;;;;;;;;6.10;91.00;;;;;;4854501;29;20328;-73
2023/01/29 11:24:37;;;;;;;;;;;4.00;90.80;;;;;;4855202;29;19938;-74
2023/01/29 11:27:12;;;;;;;;;;;4.10;90.50;;;;;;4870980;29;19931;-73
2023/01/29 11:29:45;;;;;;;;;;;5.50;91.10;;;;;;4871153;29;19942;-74
2023/01/29 11:32:13;;;;;;;;;;;3.90;90.80;;;;;;4859875;29;20030;-73
2023/01/29 11:35:15;;;;;;;;;;;5.50;91.00;;;;;;4857862;29;19975;-74
2023/01/29 11:37:43;;;;;;;;;;;3.90;90.10;;;;;;4782867;29;19944;-73
2023/01/29 11:40:30;;;;;;;;;;;4.00;90.30;;;;;;4842591;29;19938;-73
2023/01/29 11:42:58;;;;;;;;;;;4.00;89.60;;;;;;4864854;29;19938;-73
2023/01/29 11:45:26;;;;;;;;;;;4.10;90.40;;;;;;4887808;29;19999;-73
2023/01/29 11:47:53;;;;;;;;;;;4.20;89.60;;;;;;4885348;29;19936;-73
2023/01/29 11:50:22;;;;;;;;;;;4.20;89.90;;;;;;4877678;29;19928;-73
2023/01/29 11:52:49;;;;;;;;;;;4.20;90.20;;;;;;4877369;29;19942;-73
2023/01/29 11:55:36;;;;;;;;;;;4.40;90.30;;;;;;4876671;29;19932;-73
2023/01/29 11:58:17;;;;;;;;;;;6.30;90.30;;;;;;4888675;29;19935;-79
2023/01/29 12:00:45;;;;;;;;;;;4.70;89.40;;;;;;4870130;29;19938;-78
2023/01/29 12:03:15;;;;;;;;;;;5.00;88.70;;;;;;4892089;29;20018;-81
2023/01/29 12:05:52;;;;;;;;;;;4.90;88.00;;;;;;4865430;29;20738;-80
2023/01/29 12:08:21;;;;;;;;;;;6.40;89.60;;;;;;4874706;29;19931;-81
2023/01/29 12:10:48;;;;;;;;;;;4.70;88.70;;;;;;4862245;29;19935;-81
2023/01/29 12:13:24;;;;;;;;;;;6.80;90.30;;;;;;4845510;29;20012;-74
2023/01/29 12:16:04;;;;;;;;;;;5.10;89.40;;;;;;4860934;29;19939;-73
2023/01/29 12:18:33;;;;;;;;;;;5.20;89.30;;;;;;4838803;29;19935;-74
2023/01/29 12:21:17;;;;;;;;;;;5.30;88.50;;;;;;4840892;29;19932;-73
2023/01/29 12:23:57;;;;;;;;;;;5.50;87.30;;;;;;4827213;29;20453;-73
2023/01/29 12:26:34;;;;;;;;;;;5.60;87.50;;;;;;4854581;29;19932;-74
2023/01/29 12:29:12;;;;;;;;;;;5.60;86.80;;;;;;4840201;29;20043;-72
2023/01/29 12:31:41;;;;;;;;;;;5.70;86.90;;;;;;4837099;29;20368;-73
2023/01/29 12:34:27;;;;;;;;;;;5.70;86.50;;;;;;4839765;29;19938;-73
2023/01/29 12:37:02;;;;;;;;;;;5.70;86.30;;;;;;4843346;29;19983;-73
2023/01/29 12:39:29;;;;;;;;;;;5.70;86.60;;;;;;4836679;29;20622;-73
2023/01/29 12:41:55;;;;;;;;;;;5.90;87.10;;;;;;4849185;29;19932;-73
2023/01/29 12:44:40;;;;;;;;;;;6.00;86.40;;;;;;4883742;29;19943;-73
2023/01/29 12:47:16;;;;;;;;;;;6.20;87.40;;;;;;4878733;29;20286;-73
2023/01/29 12:49:44;;;;;;;;;;;6.40;84.80;;;;;;4871105;29;20417;-73
2023/01/29 12:52:18;;;;;;;;;;;6.40;84.40;;;;;;4889780;29;19932;-73
2023/01/29 12:54:50;;;;;;;;;;;6.40;83.80;;;;;;4876036;29;19927;-73
2023/01/29 12:57:43;;;;;;;;;;;6.30;83.20;;;;;;4888124;29;19938;-73
2023/01/29 13:00:21;;;;;;;;;;;6.10;84.60;;;;;;4873694;29;19984;-73
2023/01/29 13:02:51;;;;;;;;;;;6.20;83.10;;;;;;4890496;29;20388;-73
2023/01/29 13:05:21;;;;;;;;;;;6.40;83.20;;;;;;4890867;29;19928;-73
2023/01/29 13:07:50;;;;;;;;;;;6.60;83.20;;;;;;4890682;29;20397;-73
2023/01/29 13:10:19;;;;;;;;;;;7.00;81.50;;;;;;4887380;29;19932;-73
2023/01/29 13:12:48;;;;;;;;;;;7.50;79.90;;;;;;4839777;29;19983;-73
2023/01/29 13:15:29;;;;;;;;;;;7.90;80.40;;;;;;4864506;29;20458;-73
2023/01/29 13:17:59;;;;;;;;;;;8.00;79.00;;;;;;4858377;29;19993;-73
2023/01/29 13:20:28;;;;;;;;;;;7.70;78.30;;;;;;4890349;29;20415;-74
2023/01/29 13:22:57;;;;;;;;;;;8.10;77.60;;;;;;4888018;29;19931;-73
2023/01/29 13:25:24;;;;;;;;;;;8.60;75.80;;;;;;4890468;29;19939;-73
2023/01/29 13:27:51;;;;;;;;;;;9.00;76.00;;;;;;4889909;29;20301;-73
2023/01/29 13:30:25;;;;;;;;;;;9.70;73.40;;;;;;4890506;29;20023;-72
2023/01/29 13:33:07;;;;;;;;;;;9.20;71.50;;;;;;4898287;29;19928;-73
2023/01/29 13:35:36;;;;;;;;;;;9.20;71.50;;;;;;4889078;29;19928;-72
2023/01/29 13:38:03;;;;;;;;;;;8.60;72.60;;;;;;4904055;29;19931;-73
2023/01/29 13:40:30;;;;;;;;;;;9.10;74.00;;;;;;4883143;29;19971;-73
2023/01/29 13:42:56;;;;;;;;;;;8.10;74.00;;;;;;4900731;29;19936;-74
2023/01/29 13:45:35;;;;;;;;;;;8.90;74.30;;;;;;4889082;29;20019;-69
2023/01/29 13:48:08;;;;;;;;;;;8.60;74.40;;;;;;4859447;29;19936;-75
2023/01/29 13:50:36;;;;;;;;;;;8.70;72.20;;;;;;4875784;29;19927;-75
2023/01/29 13:53:03;;;;;;;;;;;8.70;70.30;;;;;;4886434;29;19980;-76
2023/01/29 13:55:31;;;;;;;;;;;8.80;71.10;;;;;;4873983;29;19928;-77
2023/01/29 13:57:59;;;;;;;;;;;8.80;69.90;;;;;;4876789;29;20050;-76
2023/01/29 14:00:32;;;;;;;;;;;8.80;70.40;;;;;;4871101;29;19943;-74
2023/01/29 14:02:59;;;;;;;;;;;9.40;70.10;;;;;;4887805;29;19932;-74
2023/01/29 14:05:28;;;;;;;;;;;11.40;68.60;;;;;;4863361;29;20397;-79
2023/01/29 14:07:58;;;;;;;;;;;10.30;65.30;;;;;;4881281;29;19936;-78
2023/01/29 14:10:26;;;;;;;;;;;10.40;67.10;;;;;;4871295;29;19932;-78
2023/01/29 14:13:13;;;;;;;;;;;9.30;67.00;;;;;;4875024;29;20485;-78
2023/01/29 14:15:40;;;;;;;;;;;9.20;69.00;;;;;;4873111;29;19951;-78
2023/01/29 14:18:09;;;;;;;;;;;9.50;66.40;;;;;;4865906;29;19943;-79
2023/01/29 14:20:41;;;;;;;;;;;9.80;66.70;;;;;;4881652;29;20023;-78
2023/01/29 14:23:35;;;;;;;;;;;9.80;66.40;;;;;;4865614;29;19935;-79
2023/01/29 14:26:03;;;;;;;;;;;9.80;66.30;;;;;;4864765;29;19941;-78
2023/01/29 14:28:31;;;;;;;;;;;9.10;66.70;;;;;;4880709;29;19931;-79
2023/01/29 14:30:58;;;;;;;;;;;9.00;68.00;;;;;;4865825;29;19935;-78
2023/01/29 14:33:32;;;;;;;;;;;8.90;68.10;;;;;;4876632;29;19939;-80
2023/01/29 14:35:58;;;;;;;;;;;8.90;69.20;;;;;;4878702;29;19936;-79
2023/01/29 14:38:26;;;;;;;;;;;9.00;67.90;;;;;;4878804;29;20034;-79
2023/01/29 14:41:01;;;;;;;;;;;9.00;67.50;;;;;;4881944;29;19968;-79
2023/01/29 14:43:28;;;;;;;;;;;9.20;66.80;;;;;;4879971;29;19927;-79
2023/01/29 14:45:55;;;;;;;;;;;9.20;67.00;;;;;;4878527;29;20414;-79
2023/01/29 14:48:34;;;;;;;;;;;9.40;67.20;;;;;;4854751;29;20372;-78
2023/01/29 14:51:04;;;;;;;;;;;11.00;67.00;;;;;;4889162;29;19927;-78
2023/01/29 14:53:41;;;;;;;;;;;9.70;66.30;;;;;;4896669;29;19942;-78
2023/01/29 14:56:16;;;;;;;;;;;9.50;67.60;;;;;;4889246;29;19932;-79
2023/01/29 14:58:50;;;;;;;;;;;9.50;67.80;;;;;;4879221;29;19931;-78
2023/01/29 15:01:24;;;;;;;;;;;9.60;68.40;;;;;;4882176;29;19932;-76
2023/01/29 15:04:15;;;;;;;;;;;9.70;66.50;;;;;;4896276;29;19931;-77
2023/01/29 15:06:46;;;;;;;;;;;9.70;68.00;;;;;;4864536;29;19931;-73
2023/01/29 15:09:19;;;;;;;;;;;9.20;67.60;;;;;;4861467;29;19979;-76
2023/01/29 15:11:50;;;;;;;;;;;8.80;67.30;;;;;;4888934;29;20300;-77
2023/01/29 15:14:22;;;;;;;;;;;8.50;68.50;;;;;;4886867;29;20574;-76
2023/01/29 15:16:59;;;;;;;;;;;8.30;70.10;;;;;;4893933;29;19943;-77
2023/01/29 15:19:31;;;;;;;;;;;8.20;70.30;;;;;;4877466;29;20396;-76
2023/01/29 15:22:09;;;;;;;;;;;7.60;69.90;;;;;;4893312;29;19931;-77
2023/01/29 15:24:37;;;;;;;;;;;7.20;70.70;;;;;;4868560;29;19968;-74
2023/01/29 15:27:05;;;;;;;;;;;6.90;71.00;;;;;;4853671;29;19967;-76
2023/01/29 15:29:33;;;;;;;;;;;6.60;72.80;;;;;;4871169;29;19931;-77
2023/01/29 15:32:02;;;;;;;;;;;6.40;73.90;;;;;;4872215;29;19931;-74
2023/01/29 15:34:29;;;;;;;;;;;6.50;74.30;;;;;;4873124;29;19932;-74
2023/01/29 15:36:56;;;;;;;;;;;6.40;74.50;;;;;;4879211;29;19931;-74
2023/01/29 15:39:23;;;;;;;;;;;6.30;74.90;;;;;;4871765;29;19978;-75
2023/01/29 15:42:03;;;;;;;;;;;6.30;75.10;;;;;;4884230;29;19935;-76
2023/01/29 15:44:29;;;;;;;;;;;6.20;75.60;;;;;;4891036;29;19932;-75
2023/01/29 15:46:58;;;;;;;;;;;6.20;76.10;;;;;;4851971;29;19966;-75
2023/01/29 15:49:29;;;;;;;;;;;6.10;75.50;;;;;;4879160;29;19979;-75
2023/01/29 15:51:56;;;;;;;;;;;5.90;76.10;;;;;;4870962;29;20013;-73
2023/01/29 15:54:24;;;;;;;;;;;5.70;76.40;;;;;;4862332;29;19991;-73
2023/01/29 15:56:51;;;;;;;;;;;5.90;77.40;;;;;;4882948;29;19928;-74
2023/01/29 15:59:19;;;;;;;;;;;5.80;78.00;;;;;;4862551;29;20432;-74
2023/01/29 16:01:46;;;;;;;;;;;5.50;78.20;;;;;;4885664;29;19932;-74
2023/01/29 16:04:18;;;;;;;;;;;5.20;78.80;;;;;;4887759;29;20569;-74
2023/01/29 16:06:45;;;;;;;;;;;5.10;78.90;;;;;;4854351;29;19932;-74
2023/01/29 16:09:17;;;;;;;;;;;6.00;80.10;;;;;;4825080;29;20520;-74
2023/01/29 16:11:44;;;;;;;;;;;5.00;79.40;;;;;;4855476;29;20000;-74
2023/01/29 16:14:12;;;;;;;;;;;4.80;79.90;;;;;;4829999;29;20020;-74
2023/01/29 16:16:39;;;;;;;;;;;4.80;80.50;;;;;;4855908;29;19932;-74
2023/01/29 16:19:12;;;;;;;;;;;4.70;81.10;;;;;;4840209;29;20043;-74
2023/01/29 16:21:39;;;;;;;;;;;4.70;81.80;;;;;;4836130;29;19940;-74
2023/01/29 16:24:08;;;;;;;;;;;5.70;82.30;;;;;;4852395;29;19932;-74
2023/01/29 16:26:36;;;;;;;;;;;4.80;82.60;;;;;;4865457;29;20416;-74
2023/01/29 16:29:03;;;;;;;;;;;4.50;82.90;;;;;;4837787;29;19939;-74
2023/01/29 16:31:30;;;;;;;;;;;4.40;83.20;;;;;;4846913;29;19932;-74
2023/01/29 16:33:57;;;;;;;;;;;4.40;83.40;;;;;;4837083;29;20056;-74
2023/01/29 16:36:25;;;;;;;;;;;4.40;83.90;;;;;;4873100;29;19938;-75
2023/01/29 16:39:04;;;;;;;;;;;4.30;84.20;;;;;;4861421;29;20474;-75
2023/01/29 16:41:34;;;;;;;;;;;4.30;84.50;;;;;;4836725;29;20512;-75
2023/01/29 16:44:02;;;;;;;;;;;4.30;85.00;;;;;;4851884;29;19963;-76
2023/01/29 16:46:36;;;;;;;;;;;4.50;85.50;;;;;;4834839;29;19939;-75
2023/01/29 16:49:23;;;;;;;;;;;5.70;86.90;;;;;;4834747;29;19933;-75
2023/01/29 16:51:50;;;;;;;;;;;4.10;87.00;;;;;;4835376;29;19943;-75
2023/01/29 16:54:22;;;;;;;;;;;3.90;86.90;;;;;;4818888;29;19939;-75
2023/01/29 16:56:50;;;;;;;;;;;3.80;87.40;;;;;;4837193;29;20691;-75
2023/01/29 16:59:20;;;;;;;;;;;3.30;88.10;;;;;;4865799;29;19938;-75
2023/01/29 17:01:48;;;;;;;;;;;3.70;88.70;;;;;;4833478;29;19937;-75
2023/01/29 17:04:16;;;;;;;;;;;3.70;89.20;;;;;;4764667;30;19934;-75
2023/01/29 17:06:44;;;;;;;;;;;3.60;89.70;;;;;;4779616;30;19987;-75
2023/01/29 17:09:25;;;;;;;;;;;3.90;90.00;;;;;;4765173;30;20040;-76
2023/01/29 17:11:55;;;;;;;;;;;3.60;90.00;;;;;;4777780;30;20342;-75
2023/01/29 17:14:23;;;;;;;;;;;3.40;90.10;;;;;;4764375;30;19999;-76
2023/01/29 17:17:03;;;;;;;;;;;3.40;90.40;;;;;;4764546;30;20288;-76
2023/01/29 17:19:30;;;;;;;;;;;3.30;90.40;;;;;;4796386;29;19929;-75
2023/01/29 17:21:57;;;;;;;;;;;3.90;90.70;;;;;;4819466;29;19952;-75
2023/01/29 17:24:24;;;;;;;;;;;5.40;91.20;;;;;;4807086;29;20482;-76
2023/01/29 17:26:51;;;;;;;;;;;3.20;90.90;;;;;;4836456;29;19932;-74
2023/01/29 17:29:20;;;;;;;;;;;2.90;91.10;;;;;;4819991;29;19960;-76
2023/01/29 17:31:47;;;;;;;;;;;3.00;91.30;;;;;;4807454;29;20023;-75
2023/01/29 17:34:14;;;;;;;;;;;2.90;91.50;;;;;;4821596;29;19952;-76
2023/01/29 17:36:41;;;;;;;;;;;2.90;91.50;;;;;;4877821;29;19963;-75
2023/01/29 17:39:16;;;;;;;;;;;3.90;91.90;;;;;;4872699;29;19984;-75
2023/01/29 17:41:44;;;;;;;;;;;2.90;91.70;;;;;;4873513;29;19967;-75
2023/01/29 17:44:13;;;;;;;;;;;3.10;91.70;;;;;;4856052;29;19936;-76
2023/01/29 17:46:46;;;;;;;;;;;2.90;91.80;;;;;;4872845;29;19932;-75
2023/01/29 17:49:22;;;;;;;;;;;2.90;92.00;;;;;;4875011;29;19935;-76
2023/01/29 17:51:52;;;;;;;;;;;2.80;92.10;;;;;;4882123;29;20022;-75
2023/01/29 17:54:19;;;;;;;;;;;3.10;92.40;;;;;;4865801;29;20341;-75
2023/01/29 17:56:47;;;;;;;;;;;2.80;92.50;;;;;;4885788;29;19932;-76
2023/01/29 17:59:14;;;;;;;;;;;2.80;92.50;;;;;;4889729;29;19932;-75
2023/01/29 18:01:42;;;;;;;;;;;2.70;92.90;;;;;;4858738;29;20413;-76
2023/01/29 18:04:09;;;;;;;;;;;2.60;93.00;;;;;;4874227;29;20416;-75
2023/01/29 18:06:36;;;;;;;;;;;2.50;93.60;;;;;;4889641;29;19970;-75
2023/01/29 18:09:03;;;;;;;;;;;2.80;94.00;;;;;;4890043;29;19927;-75
2023/01/29 18:11:30;;;;;;;;;;;2.20;93.90;;;;;;4873874;29;20349;-75
2023/01/29 18:13:57;;;;;;;;;;;2.70;94.00;;;;;;4889896;29;19932;-75
2023/01/29 18:16:24;;;;;;;;;;;2.20;93.80;;;;;;4858986;29;19942;-76
2023/01/29 18:18:51;;;;;;;;;;;2.40;93.70;;;;;;4890311;29;19932;-76
2023/01/29 18:21:18;;;;;;;;;;;3.10;94.20;;;;;;4876207;29;19931;-75
2023/01/29 18:23:45;;;;;;;;;;;2.30;93.90;;;;;;4883745;29;19935;-75
2023/01/29 18:26:13;;;;;;;;;;;2.30;94.00;;;;;;4849459;29;19982;-76
2023/01/29 18:28:42;;;;;;;;;;;3.60;94.60;;;;;;4887991;29;20381;-76
2023/01/29 18:31:09;;;;;;;;;;;2.00;94.40;;;;;;4884529;29;19928;-75
2023/01/29 18:33:39;;;;;;;;;;;2.20;94.30;;;;;;4873613;29;19938;-75
2023/01/29 18:36:06;;;;;;;;;;;2.10;94.40;;;;;;4861654;29;20397;-75
2023/01/29 18:38:33;;;;;;;;;;;1.90;94.40;;;;;;4860711;29;19932;-75
2023/01/29 18:41:04;;;;;;;;;;;2.10;94.60;;;;;;4857954;29;19979;-75
2023/01/29 18:43:31;;;;;;;;;;;2.00;94.60;;;;;;4847908;29;20400;-75
2023/01/29 18:45:58;;;;;;;;;;;2.00;94.80;;;;;;4880123;29;19982;-75
2023/01/29 18:48:26;;;;;;;;;;;4.10;95.50;;;;;;4874307;29;19932;-75
2023/01/29 18:50:53;;;;;;;;;;;1.80;95.00;;;;;;4887631;29;20028;-75
2023/01/29 18:53:21;;;;;;;;;;;1.80;95.00;;;;;;4864046;29;20511;-75
2023/01/29 18:55:58;;;;;;;;;;;3.00;95.80;;;;;;4888453;29;19931;-75
2023/01/29 18:58:25;;;;;;;;;;;1.80;95.20;;;;;;4860104;29;20471;-75
2023/01/29 19:01:07;;;;;;;;;;;1.70;95.40;;;;;;4872886;29;20706;-75
2023/01/29 19:03:35;;;;;;;;;;;1.70;95.50;;;;;;4885605;29;20380;-76
2023/01/29 19:06:03;;;;;;;;;;;1.70;95.60;;;;;;4862916;29;20361;-75
2023/01/29 19:08:30;;;;;;;;;;;1.70;95.90;;;;;;4879111;29;19953;-75
2023/01/29 19:11:00;;;;;;;;;;;2.60;95.90;;;;;;4889625;29;19959;-75
2023/01/29 19:13:29;;;;;;;;;;;1.60;95.80;;;;;;4892089;29;19932;-75
2023/01/29 19:15:56;;;;;;;;;;;3.10;96.20;;;;;;4890501;29;19942;-75
2023/01/29 19:18:24;;;;;;;;;;;2.60;96.10;;;;;;4881196;29;20381;-75
2023/01/29 19:20:53;;;;;;;;;;;1.60;95.60;;;;;;4874323;29;20361;-75
2023/01/29 19:23:20;;;;;;;;;;;1.70;95.80;;;;;;4853184;29;19935;-75
2023/01/29 19:25:47;;;;;;;;;;;1.10;95.70;;;;;;4876927;29;20389;-75
2023/01/29 19:28:14;;;;;;;;;;;1.70;95.60;;;;;;4874103;29;20454;-75
2023/01/29 19:30:41;;;;;;;;;;;0.50;95.80;;;;;;4875339;29;19932;-75
2023/01/29 19:33:11;;;;;;;;;;;1.60;96.10;;;;;;4887632;29;19932;-75
2023/01/29 19:35:38;;;;;;;;;;;1.60;96.30;;;;;;4875949;29;19939;-75
2023/01/29 19:38:05;;;;;;;;;;;2.00;96.50;;;;;;4861937;29;19942;-75
2023/01/29 19:40:32;;;;;;;;;;;1.60;96.50;;;;;;4858927;29;19932;-75
2023/01/29 19:42:59;;;;;;;;;;;3.90;97.20;;;;;;4874731;29;19960;-75
2023/01/29 19:45:26;;;;;;;;;;;1.30;96.80;;;;;;4877473;29;20384;-75